Time;durP1;ratioP1;P1;durP2;ratioP2;P2;SDS_P1;SDS_P2;PMS_P1;PMS_P2;Temp;Humidity;BMP_temperature;BMP_pressure;BME280_temperature;BME280_humidity;BME280_pressure;Samples;Min_cycle;Max_cycle;Signal;HPM_P1;HPM_P2
2021/08/22 00:00:31;;;;;;;23.67;12.40;;;;;;;;;;4940102;28;20035;-61
2021/08/22 00:03:00;;;;;;;22.77;12.90;;;;;;;;;;4939139;28;20045;-63
2021/08/22 00:05:28;;;;;;;20.83;12.38;;;;;;;;;;4939416;28;20030;-61
2021/08/22 00:07:53;;;;;;;23.60;12.85;;;;;;;;;;4937196;28;20540;-61
2021/08/22 00:10:19;;;;;;;18.75;11.65;;;;;;;;;;4936188;28;20043;-62
2021/08/22 00:12:47;;;;;;;24.13;13.23;;;;;;;;;;4938515;28;20054;-62
2021/08/22 00:15:19;;;;;;;23.73;12.35;;;;;;;;;;4936997;28;20019;-61
2021/08/22 00:17:50;;;;;;;24.38;12.90;;;;;;;;;;4924919;28;20039;-62
2021/08/22 00:20:21;;;;;;;22.02;12.88;;;;;;;;;;4940584;28;20030;-62
2021/08/22 00:22:47;;;;;;;22.30;13.10;;;;;;;;;;4930280;28;20035;-62
2021/08/22 00:25:13;;;;;;;22.15;13.55;;;;;;;;;;4939973;28;20042;-62
2021/08/22 00:27:41;;;;;;;20.58;11.88;;;;;;;;;;4924286;28;20031;-61
2021/08/22 00:30:08;;;;;;;22.30;12.98;;;;;;;;;;4938265;28;20035;-61
2021/08/22 00:32:34;;;;;;;21.20;13.07;;;;;;;;;;4937954;28;20050;-62
2021/08/22 00:35:02;;;;;;;21.80;12.98;;;;;;;;;;4937504;28;20035;-62
2021/08/22 00:37:29;;;;;;;28.58;13.73;;;;;;;;;;4938279;28;20045;-61
2021/08/22 00:39:59;;;;;;;27.17;12.82;;;;;;;;;;4939018;28;20049;-61
2021/08/22 00:42:27;;;;;;;23.58;12.98;;;;;;;;;;4938393;28;20042;-61
2021/08/22 00:45:00;;;;;;;22.73;12.65;;;;;;;;;;5043835;27;20819;-61
2021/08/22 00:47:26;;;;;;;21.30;12.68;;;;;;;;;;5036426;28;20041;-60
2021/08/22 00:49:55;;;;;;;21.55;13.13;;;;;;;;;;5043005;28;20071;-61
2021/08/22 00:52:23;;;;;;;26.33;12.98;;;;;;;;;;5025430;28;20115;-62
2021/08/22 00:54:48;;;;;;;22.48;13.25;;;;;;;;;;5023875;28;20032;-62
2021/08/22 00:57:14;;;;;;;26.83;14.05;;;;;;;;;;5043198;28;20070;-62
2021/08/22 00:59:40;;;;;;;24.23;13.77;;;;;;;;;;5059102;28;20498;-62
2021/08/22 01:02:08;;;;;;;25.15;13.82;;;;;;;;;;5045000;28;20012;-62
2021/08/22 01:04:53;;;;;;;22.25;12.50;;;;;;;;;;5043552;28;20028;-62
2021/08/22 01:07:23;;;;;;;23.08;12.93;;;;;;;;;;5075541;28;20032;-62
2021/08/22 01:09:52;;;;;;;22.83;13.35;;;;;;;;;;5045632;28;20032;-61
2021/08/22 01:12:25;;;;;;;26.55;14.13;;;;;;;;;;5041489;28;20043;-62
2021/08/22 01:14:57;;;;;;;23.58;12.60;;;;;;;;;;5042946;28;20109;-62
2021/08/22 01:17:23;;;;;;;23.17;12.43;;;;;;;;;;5044500;28;20051;-62
2021/08/22 01:19:57;;;;;;;24.27;13.13;;;;;;;;;;5042832;28;20115;-61
2021/08/22 01:22:23;;;;;;;23.23;13.07;;;;;;;;;;5076195;28;20028;-61
2021/08/22 01:24:52;;;;;;;23.60;13.55;;;;;;;;;;5043513;28;20385;-60
2021/08/22 01:27:19;;;;;;;24.15;13.55;;;;;;;;;;5041905;28;20498;-61
2021/08/22 01:29:52;;;;;;;28.42;14.23;;;;;;;;;;5045168;28;20681;-62
2021/08/22 01:32:19;;;;;;;21.80;13.07;;;;;;;;;;5043712;28;20111;-61
2021/08/22 01:34:45;;;;;;;23.77;13.23;;;;;;;;;;5043314;28;20033;-61
2021/08/22 01:37:11;;;;;;;23.50;13.75;;;;;;;;;;5024265;28;20036;-61
2021/08/22 01:39:41;;;;;;;22.42;12.48;;;;;;;;;;5028129;28;20151;-62
2021/08/22 01:42:13;;;;;;;23.63;13.23;;;;;;;;;;5040208;28;20033;-62
2021/08/22 01:44:43;;;;;;;23.65;13.25;;;;;;;;;;5042933;28;20127;-61
2021/08/22 01:47:09;;;;;;;22.42;12.80;;;;;;;;;;5020068;28;20039;-62
2021/08/22 01:49:36;;;;;;;23.70;13.82;;;;;;;;;;5043173;28;20024;-62
2021/08/22 01:52:06;;;;;;;20.80;12.93;;;;;;;;;;5042066;28;20032;-62
2021/08/22 01:54:32;;;;;;;22.88;12.45;;;;;;;;;;5039517;28;20282;-62
2021/08/22 01:56:58;;;;;;;26.25;13.52;;;;;;;;;;5027686;28;20095;-62
2021/08/22 01:59:23;;;;;;;23.95;12.93;;;;;;;;;;5030076;28;20039;-62
2021/08/22 02:01:51;;;;;;;23.40;13.18;;;;;;;;;;5001466;28;20403;-61
2021/08/22 02:04:21;;;;;;;22.25;13.20;;;;;;;;;;5014204;28;20041;-62
2021/08/22 02:06:56;;;;;;;21.02;13.35;;;;;;;;;;5025185;28;20029;-61
2021/08/22 02:09:37;;;;;;;23.30;13.07;;;;;;;;;;5029071;28;20029;-62
2021/08/22 02:12:07;;;;;;;22.20;12.90;;;;;;;;;;5026662;28;20068;-62
2021/08/22 02:14:37;;;;;;;35.95;14.35;;;;;;;;;;5027762;28;20695;-62
2021/08/22 02:17:05;;;;;;;22.65;12.68;;;;;;;;;;5025990;28;20033;-62
2021/08/22 02:19:31;;;;;;;23.42;13.80;;;;;;;;;;5027692;28;21455;-62
2021/08/22 02:21:58;;;;;;;32.17;13.98;;;;;;;;;;5026490;28;20075;-63
2021/08/22 02:24:28;;;;;;;26.20;13.70;;;;;;;;;;5029572;28;20021;-63
2021/08/22 02:26:53;;;;;;;24.27;13.43;;;;;;;;;;5028237;28;21987;-63
2021/08/22 02:29:23;;;;;;;24.08;13.27;;;;;;;;;;5029195;28;20440;-62
2021/08/22 02:31:49;;;;;;;24.92;13.30;;;;;;;;;;5026064;28;20057;-61
2021/08/22 02:34:14;;;;;;;22.10;13.45;;;;;;;;;;5029467;28;20203;-62
2021/08/22 02:36:46;;;;;;;30.95;15.90;;;;;;;;;;5028610;28;21233;-61
2021/08/22 02:39:12;;;;;;;24.77;14.48;;;;;;;;;;5029567;28;20099;-62
2021/08/22 02:41:37;;;;;;;27.42;15.30;;;;;;;;;;4994274;28;21138;-63
2021/08/22 02:44:05;;;;;;;29.02;15.52;;;;;;;;;;5027800;28;20134;-62
2021/08/22 02:46:32;;;;;;;24.83;15.68;;;;;;;;;;5031117;28;20108;-62
2021/08/22 02:49:00;;;;;;;28.58;15.43;;;;;;;;;;5009392;28;20039;-62
2021/08/22 02:51:26;;;;;;;23.15;14.13;;;;;;;;;;5010985;28;20106;-62
2021/08/22 02:53:52;;;;;;;26.35;14.80;;;;;;;;;;5029423;28;20491;-62
2021/08/22 02:56:20;;;;;;;27.50;15.38;;;;;;;;;;4992232;28;20047;-62
2021/08/22 02:58:48;;;;;;;24.35;14.60;;;;;;;;;;5030685;28;20068;-61
2021/08/22 03:01:14;;;;;;;25.05;15.18;;;;;;;;;;5028791;28;20652;-62
2021/08/22 03:03:44;;;;;;;27.98;15.50;;;;;;;;;;5028324;28;20191;-62
2021/08/22 03:06:10;;;;;;;28.17;15.57;;;;;;;;;;5024461;28;20108;-63
2021/08/22 03:08:40;;;;;;;23.42;13.90;;;;;;;;;;5024962;28;20029;-62
2021/08/22 03:11:06;;;;;;;26.25;15.02;;;;;;;;;;4995863;28;20899;-62
2021/08/22 03:13:32;;;;;;;29.13;15.55;;;;;;;;;;5027895;28;20147;-62
2021/08/22 03:15:57;;;;;;;29.95;16.40;;;;;;;;;;5027305;28;20082;-61
2021/08/22 03:18:25;;;;;;;29.30;17.15;;;;;;;;;;5029455;28;20056;-61
2021/08/22 03:20:51;;;;;;;31.58;17.13;;;;;;;;;;5026310;28;20025;-61
2021/08/22 03:23:17;;;;;;;32.35;17.10;;;;;;;;;;5022587;28;20431;-62
2021/08/22 03:25:42;;;;;;;35.08;17.48;;;;;;;;;;5022776;28;20822;-60
2021/08/22 03:28:10;;;;;;;33.00;18.10;;;;;;;;;;5026510;28;20064;-60
2021/08/22 03:30:39;;;;;;;33.85;17.38;;;;;;;;;;5027949;28;20481;-60
2021/08/22 03:33:04;;;;;;;34.83;18.90;;;;;;;;;;5028119;28;22097;-59
2021/08/22 03:35:30;;;;;;;34.75;18.38;;;;;;;;;;5041483;28;20040;-61
2021/08/22 03:37:58;;;;;;;36.85;19.85;;;;;;;;;;5027282;28;20395;-60
2021/08/22 03:40:28;;;;;;;42.00;19.90;;;;;;;;;;5025387;28;20032;-61
2021/08/22 03:42:54;;;;;;;34.03;17.77;;;;;;;;;;5042490;28;20997;-61
2021/08/22 03:45:19;;;;;;;36.22;19.25;;;;;;;;;;5027505;28;20033;-61
2021/08/22 03:47:49;;;;;;;35.72;19.63;;;;;;;;;;5025333;28;20064;-60
2021/08/22 03:50:16;;;;;;;35.58;19.75;;;;;;;;;;5008153;28;20044;-59
2021/08/22 03:52:41;;;;;;;36.45;19.85;;;;;;;;;;5023715;28;20113;-60
2021/08/22 03:55:07;;;;;;;42.20;19.83;;;;;;;;;;5043152;28;20025;-59
2021/08/22 03:57:33;;;;;;;43.25;20.52;;;;;;;;;;5024598;28;20025;-59
2021/08/22 03:59:59;;;;;;;43.65;20.23;;;;;;;;;;5014037;28;20047;-60
2021/08/22 04:02:29;;;;;;;31.83;17.80;;;;;;;;;;5028383;28;20025;-60
2021/08/22 04:04:55;;;;;;;39.15;20.13;;;;;;;;;;5027719;28;21401;-59
2021/08/22 04:07:23;;;;;;;34.83;19.88;;;;;;;;;;5026591;28;20041;-59
2021/08/22 04:09:49;;;;;;;42.97;20.70;;;;;;;;;;5028083;28;20033;-60
2021/08/22 04:12:17;;;;;;;46.22;19.42;;;;;;;;;;5027172;28;20029;-60
2021/08/22 04:14:43;;;;;;;44.25;19.83;;;;;;;;;;5024560;28;20503;-60
2021/08/22 04:17:08;;;;;;;50.47;20.58;;;;;;;;;;5013164;28;20048;-60
2021/08/22 04:19:36;;;;;;;45.30;20.20;;;;;;;;;;5025477;28;20033;-61
2021/08/22 04:22:04;;;;;;;44.25;21.20;;;;;;;;;;5023879;28;20040;-63
2021/08/22 04:24:30;;;;;;;44.65;22.38;;;;;;;;;;5026917;28;20072;-62
2021/08/22 04:26:56;;;;;;;53.13;22.02;;;;;;;;;;5007791;28;20111;-61
2021/08/22 04:29:24;;;;;;;44.50;22.73;;;;;;;;;;5027561;28;20955;-61
2021/08/22 04:31:50;;;;;;;35.85;20.33;;;;;;;;;;5027591;28;20036;-61
2021/08/22 04:34:18;;;;;;;42.00;21.98;;;;;;;;;;5006956;28;20036;-60
2021/08/22 04:36:46;;;;;;;39.17;21.85;;;;;;;;;;5024494;28;20036;-59
2021/08/22 04:39:13;;;;;;;46.30;21.60;;;;;;;;;;5026981;28;20024;-60
2021/08/22 04:41:42;;;;;;;40.15;21.05;;;;;;;;;;5007516;28;20072;-59
2021/08/22 04:44:08;;;;;;;58.17;22.85;;;;;;;;;;5027856;28;20048;-59
2021/08/22 04:46:34;;;;;;;47.17;23.15;;;;;;;;;;5026540;28;20032;-59
2021/08/22 04:49:01;;;;;;;64.32;23.27;;;;;;;;;;5007560;28;20902;-59
2021/08/22 04:51:27;;;;;;;60.75;24.63;;;;;;;;;;5025926;28;20036;-59
2021/08/22 04:53:53;;;;;;;54.88;24.23;;;;;;;;;;5026276;28;20087;-59
2021/08/22 04:56:18;;;;;;;73.68;25.08;;;;;;;;;;4999285;28;20039;-59
2021/08/22 04:58:44;;;;;;;48.55;24.67;;;;;;;;;;5026168;28;20463;-59
2021/08/22 05:01:09;;;;;;;47.65;23.25;;;;;;;;;;5043508;28;20036;-58
2021/08/22 05:03:35;;;;;;;97.85;25.38;;;;;;;;;;5027340;28;20039;-58
2021/08/22 05:06:02;;;;;;;95.88;27.52;;;;;;;;;;5025389;28;20044;-58
2021/08/22 05:08:28;;;;;;;66.55;25.05;;;;;;;;;;5024065;28;20675;-58
2021/08/22 05:10:57;;;;;;;62.17;25.38;;;;;;;;;;5026342;28;20056;-58
2021/08/22 05:13:22;;;;;;;49.35;25.40;;;;;;;;;;5021670;28;20032;-58
2021/08/22 05:15:51;;;;;;;52.53;24.75;;;;;;;;;;5028388;28;20036;-58
2021/08/22 05:18:24;;;;;;;51.35;25.85;;;;;;;;;;4993726;28;20029;-58
2021/08/22 05:20:50;;;;;;;53.38;25.45;;;;;;;;;;5023032;28;20041;-58
2021/08/22 05:23:20;;;;;;;67.32;25.08;;;;;;;;;;5025509;28;20213;-58
2021/08/22 05:25:45;;;;;;;50.83;24.88;;;;;;;;;;5028639;28;20033;-58
2021/08/22 05:28:13;;;;;;;53.67;25.15;;;;;;;;;;5024133;28;20079;-59
2021/08/22 05:30:39;;;;;;;49.47;23.80;;;;;;;;;;5026804;28;20040;-59
2021/08/22 05:33:04;;;;;;;49.55;24.38;;;;;;;;;;5028081;28;20102;-58
2021/08/22 05:35:37;;;;;;;56.72;24.92;;;;;;;;;;5027621;28;20041;-59
2021/08/22 05:38:06;;;;;;;47.40;24.38;;;;;;;;;;5027248;28;20020;-59
2021/08/22 05:40:34;;;;;;;57.22;26.20;;;;;;;;;;5027498;28;20037;-58
2021/08/22 05:43:04;;;;;;;62.55;25.08;;;;;;;;;;5028685;28;20045;-59
2021/08/22 05:45:32;;;;;;;49.00;23.60;;;;;;;;;;5029364;28;20037;-59
2021/08/22 05:47:58;;;;;;;45.38;23.63;;;;;;;;;;5032908;28;20941;-59
2021/08/22 05:50:28;;;;;;;43.72;23.13;;;;;;;;;;5031578;28;20025;-58
2021/08/22 05:52:54;;;;;;;40.40;21.73;;;;;;;;;;5029718;28;20637;-59
2021/08/22 05:55:20;;;;;;;45.22;22.58;;;;;;;;;;5029364;28;20123;-59
2021/08/22 05:57:46;;;;;;;40.80;23.40;;;;;;;;;;5026117;28;20492;-59
2021/08/22 06:00:14;;;;;;;43.83;21.48;;;;;;;;;;5030704;28;20029;-59
2021/08/22 06:02:42;;;;;;;47.80;22.05;;;;;;;;;;5026957;28;20048;-58
2021/08/22 06:05:08;;;;;;;44.33;21.85;;;;;;;;;;5030045;28;20041;-58
2021/08/22 06:07:33;;;;;;;46.97;20.98;;;;;;;;;;5014886;28;20040;-59
2021/08/22 06:09:59;;;;;;;46.08;21.17;;;;;;;;;;5025152;28;20060;-58
2021/08/22 06:12:30;;;;;;;42.83;22.00;;;;;;;;;;5026627;28;20037;-58
2021/08/22 06:14:58;;;;;;;41.72;21.83;;;;;;;;;;5026447;28;20545;-58
2021/08/22 06:17:25;;;;;;;42.17;20.52;;;;;;;;;;5029720;28;20048;-58
2021/08/22 06:19:51;;;;;;;45.20;20.00;;;;;;;;;;5028596;28;21570;-59
2021/08/22 06:22:17;;;;;;;54.60;21.40;;;;;;;;;;5029254;28;20039;-58
2021/08/22 06:24:43;;;;;;;45.72;20.67;;;;;;;;;;5034034;28;20045;-58
2021/08/22 06:27:08;;;;;;;34.47;18.75;;;;;;;;;;5027581;28;20024;-58
2021/08/22 06:29:36;;;;;;;43.30;19.75;;;;;;;;;;5031393;28;20055;-58
2021/08/22 06:32:06;;;;;;;36.40;19.92;;;;;;;;;;5013113;28;20564;-57
2021/08/22 06:34:34;;;;;;;38.13;20.30;;;;;;;;;;5028719;28;20116;-57
2021/08/22 06:37:02;;;;;;;33.40;19.48;;;;;;;;;;5028987;28;20032;-57
2021/08/22 06:39:38;;;;;;;37.65;19.95;;;;;;;;;;5025073;28;20057;-58
2021/08/22 06:45:39;;;;;;;49.25;19.10;;;;;;;;;;5010471;28;20381;-58
2021/08/22 06:48:08;;;;;;;35.58;20.58;;;;;;;;;;5025760;28;20041;-59
2021/08/22 06:50:33;;;;;;;45.03;21.17;;;;;;;;;;5027401;28;20040;-58
2021/08/22 06:53:01;;;;;;;32.92;20.73;;;;;;;;;;5028033;28;20029;-58
2021/08/22 06:55:28;;;;;;;36.35;20.75;;;;;;;;;;5027587;28;20035;-57
2021/08/22 06:57:56;;;;;;;36.20;20.50;;;;;;;;;;5019274;28;20028;-58
2021/08/22 07:00:22;;;;;;;32.33;18.80;;;;;;;;;;5027821;28;20031;-58
2021/08/22 07:02:47;;;;;;;35.33;19.63;;;;;;;;;;5023276;28;20517;-58
2021/08/22 07:05:13;;;;;;;37.05;18.90;;;;;;;;;;5029621;28;20056;-58
2021/08/22 07:07:41;;;;;;;27.17;16.75;;;;;;;;;;5028142;28;20044;-58
2021/08/22 07:10:06;;;;;;;27.35;15.43;;;;;;;;;;5025392;28;20033;-58
2021/08/22 07:12:32;;;;;;;23.52;14.40;;;;;;;;;;5029562;28;20037;-58
2021/08/22 07:14:57;;;;;;;28.63;14.48;;;;;;;;;;5026350;28;20077;-58
2021/08/22 07:17:27;;;;;;;73.00;15.43;;;;;;;;;;5010961;28;20148;-58
2021/08/22 07:19:53;;;;;;;37.15;13.85;;;;;;;;;;5026790;28;20033;-58
2021/08/22 07:22:21;;;;;;;26.02;11.98;;;;;;;;;;5028701;28;20033;-58
2021/08/22 07:24:49;;;;;;;36.15;11.90;;;;;;;;;;5027094;28;20127;-58
2021/08/22 07:27:17;;;;;;;26.70;10.85;;;;;;;;;;5027140;28;20124;-58
2021/08/22 07:29:47;;;;;;;34.97;11.65;;;;;;;;;;5027410;28;20037;-59
2021/08/22 07:32:18;;;;;;;30.67;9.63;;;;;;;;;;4999182;28;20705;-58
2021/08/22 07:34:43;;;;;;;15.73;9.38;;;;;;;;;;5028715;28;20046;-58
2021/08/22 07:37:09;;;;;;;22.23;9.80;;;;;;;;;;5026379;28;21314;-58
2021/08/22 07:39:35;;;;;;;18.20;8.93;;;;;;;;;;4998722;28;20033;-58
2021/08/22 07:42:00;;;;;;;17.55;9.57;;;;;;;;;;5026152;28;20119;-58
2021/08/22 07:44:26;;;;;;;14.30;9.63;;;;;;;;;;5028792;28;20076;-58
2021/08/22 07:46:52;;;;;;;11.38;8.60;;;;;;;;;;5026952;28;20032;-58
2021/08/22 07:49:19;;;;;;;14.90;9.23;;;;;;;;;;5025759;28;20071;-58
2021/08/22 07:51:45;;;;;;;12.93;8.43;;;;;;;;;;4996072;28;20120;-58
2021/08/22 07:54:11;;;;;;;12.95;9.25;;;;;;;;;;5028635;28;20053;-58
2021/08/22 07:56:39;;;;;;;12.77;8.60;;;;;;;;;;5027948;28;20047;-58
2021/08/22 07:59:07;;;;;;;15.13;8.60;;;;;;;;;;5014493;28;20036;-57
2021/08/22 08:01:35;;;;;;;13.93;9.40;;;;;;;;;;5015647;28;20033;-58
2021/08/22 08:04:03;;;;;;;12.73;8.68;;;;;;;;;;5026068;28;20037;-57
2021/08/22 08:06:31;;;;;;;12.75;8.60;;;;;;;;;;5025792;28;20036;-58
2021/08/22 08:08:59;;;;;;;10.32;8.00;;;;;;;;;;5027230;28;20116;-58
2021/08/22 08:11:24;;;;;;;12.88;8.70;;;;;;;;;;5024746;28;20100;-59
2021/08/22 08:13:50;;;;;;;13.40;8.32;;;;;;;;;;5025802;28;20844;-59
2021/08/22 08:16:20;;;;;;;13.18;8.40;;;;;;;;;;5025112;28;20037;-59
2021/08/22 08:18:50;;;;;;;16.30;8.35;;;;;;;;;;5025990;28;20078;-60
2021/08/22 08:21:21;;;;;;;14.05;8.30;;;;;;;;;;5026757;28;20040;-59
2021/08/22 08:23:47;;;;;;;15.27;9.00;;;;;;;;;;5021653;28;20106;-59
2021/08/22 08:26:13;;;;;;;11.98;8.70;;;;;;;;;;5021162;28;20997;-59
2021/08/22 08:28:38;;;;;;;14.45;8.27;;;;;;;;;;5041357;28;20094;-58
2021/08/22 08:31:06;;;;;;;12.35;7.68;;;;;;;;;;5025373;28;20033;-58
2021/08/22 08:33:32;;;;;;;11.77;7.63;;;;;;;;;;4997376;28;20051;-58
2021/08/22 08:35:57;;;;;;;14.05;7.55;;;;;;;;;;5007448;28;20036;-59
2021/08/22 08:38:27;;;;;;;28.52;7.53;;;;;;;;;;5023557;28;20036;-59
2021/08/22 08:40:56;;;;;;;11.70;6.90;;;;;;;;;;5021216;28;20052;-60
2021/08/22 08:43:27;;;;;;;10.20;6.85;;;;;;;;;;5012796;28;20037;-59
2021/08/22 08:45:53;;;;;;;23.15;6.75;;;;;;;;;;4987357;28;20984;-59
2021/08/22 08:48:23;;;;;;;9.77;6.43;;;;;;;;;;5018486;28;21650;-60
2021/08/22 08:51:03;;;;;;;11.73;5.22;;;;;;;;;;5017876;28;20032;-59
2021/08/22 08:53:31;;;;;;;7.63;5.28;;;;;;;;;;5009452;28;20033;-59
2021/08/22 08:56:12;;;;;;;7.47;5.32;;;;;;;;;;5014394;28;20028;-58
2021/08/22 08:58:38;;;;;;;8.88;5.00;;;;;;;;;;5013564;28;20098;-59
2021/08/22 09:01:03;;;;;;;7.78;4.90;;;;;;;;;;5009590;28;20582;-59
2021/08/22 09:03:29;;;;;;;7.13;4.45;;;;;;;;;;5010419;28;20752;-59
2021/08/22 09:06:16;;;;;;;6.88;5.00;;;;;;;;;;5021072;28;20029;-59
2021/08/22 09:09:01;;;;;;;7.25;4.85;;;;;;;;;;5019730;28;20028;-59
2021/08/22 09:11:48;;;;;;;8.23;5.25;;;;;;;;;;5024263;28;20039;-59
2021/08/22 09:14:32;;;;;;;6.53;5.30;;;;;;;;;;5029587;28;20057;-58
2021/08/22 09:17:16;;;;;;;8.20;5.22;;;;;;;;;;5026397;28;20029;-59
2021/08/22 09:20:10;;;;;;;5.82;4.13;;;;;;;;;;5030325;28;20041;-59
2021/08/22 09:22:41;;;;;;;5.78;4.72;;;;;;;;;;5025800;28;20320;-58
2021/08/22 09:25:24;;;;;;;6.10;4.88;;;;;;;;;;5028095;28;20486;-58
2021/08/22 09:28:11;;;;;;;6.43;4.85;;;;;;;;;;4998349;28;20053;-58
2021/08/22 09:30:55;;;;;;;5.40;4.40;;;;;;;;;;5000967;28;20048;-57
2021/08/22 09:33:39;;;;;;;6.78;4.55;;;;;;;;;;5021189;28;20041;-61
2021/08/22 09:36:08;;;;;;;6.80;4.25;;;;;;;;;;5027897;28;20155;-59
2021/08/22 09:38:33;;;;;;;5.43;4.07;;;;;;;;;;5030074;28;20467;-59
2021/08/22 09:40:59;;;;;;;5.22;4.13;;;;;;;;;;5022944;28;20079;-61
2021/08/22 09:43:45;;;;;;;5.40;3.75;;;;;;;;;;5026558;28;21292;-60
2021/08/22 09:46:32;;;;;;;12.30;3.63;;;;;;;;;;5010662;28;22072;-59
2021/08/22 09:49:04;;;;;;;4.15;3.40;;;;;;;;;;5010034;28;21038;-59
2021/08/22 09:51:50;;;;;;;4.57;3.40;;;;;;;;;;5025788;28;20051;-60
2021/08/22 09:54:41;;;;;;;4.53;3.35;;;;;;;;;;5011159;28;20483;-59
2021/08/22 09:57:26;;;;;;;4.03;3.25;;;;;;;;;;5026192;28;20036;-60
2021/08/22 10:00:15;;;;;;;7.07;3.22;;;;;;;;;;5028680;28;20095;-61
2021/08/22 10:02:41;;;;;;;4.47;3.80;;;;;;;;;;5026544;28;20021;-62
2021/08/22 10:05:13;;;;;;;4.40;3.63;;;;;;;;;;5026144;28;20057;-61
2021/08/22 10:07:38;;;;;;;7.90;4.18;;;;;;;;;;5026388;28;20126;-61
2021/08/22 10:10:06;;;;;;;4.93;4.05;;;;;;;;;;5028798;28;20515;-61
2021/08/22 10:12:35;;;;;;;6.70;4.38;;;;;;;;;;5026568;28;20918;-62
2021/08/22 10:15:02;;;;;;;5.35;4.65;;;;;;;;;;5017077;28;20036;-60
2021/08/22 10:17:28;;;;;;;7.35;5.47;;;;;;;;;;5030526;28;20529;-61
2021/08/22 10:19:54;;;;;;;7.82;5.50;;;;;;;;;;5029421;28;20037;-60
2021/08/22 10:22:35;;;;;;;8.10;5.95;;;;;;;;;;5030327;28;20561;-60
2021/08/22 10:25:04;;;;;;;14.40;7.07;;;;;;;;;;5027037;28;21164;-62
2021/08/22 10:27:29;;;;;;;29.83;8.25;;;;;;;;;;5028437;28;20036;-59
2021/08/22 10:29:57;;;;;;;17.60;7.97;;;;;;;;;;5026977;28;20139;-61
2021/08/22 10:32:24;;;;;;;117.68;11.90;;;;;;;;;;5024867;28;20029;-61
2021/08/22 10:35:07;;;;;;;348.25;23.83;;;;;;;;;;5028736;28;21932;-65
2021/08/22 10:37:33;;;;;;;0.22;0.22;;;;;;;;;;5024126;28;20366;-66
2021/08/22 10:40:20;;;;;;;0.30;0.30;;;;;;;;;;5027650;28;20028;-66
2021/08/22 10:42:48;;;;;;;0.00;0.00;;;;;;;;;;5009543;28;20055;-65
2021/08/22 10:45:32;;;;;;;0.05;0.05;;;;;;;;;;5009782;28;20064;-63
2021/08/22 10:48:03;;;;;;;0.10;0.10;;;;;;;;;;5028278;28;20045;-63
2021/08/22 10:50:51;;;;;;;0.10;0.10;;;;;;;;;;5027494;28;20072;-64
2021/08/22 10:53:26;;;;;;;0.00;0.00;;;;;;;;;;5033079;28;20807;-63
2021/08/22 10:55:54;;;;;;;;;;;;;;;;;;5029841;28;20025;-61
2021/08/22 10:58:22;;;;;;;0.00;0.00;;;;;;;;;;5023429;28;19966;-60
2021/08/22 11:01:10;;;;;;;0.08;0.08;;;;;;;;;;5027207;28;20029;-60
2021/08/22 11:03:35;;;;;;;0.00;0.00;;;;;;;;;;5014302;28;20040;-59
2021/08/22 11:06:07;;;;;;;0.00;0.00;;;;;;;;;;5028606;28;20037;-59
2021/08/22 11:08:37;;;;;;;0.10;0.00;;;;;;;;;;5025827;28;20480;-60
2021/08/22 11:11:07;;;;;;;0.00;0.00;;;;;;;;;;5026660;28;20037;-59
2021/08/22 11:13:41;;;;;;;0.00;0.00;;;;;;;;;;5027757;28;20029;-60
2021/08/22 11:16:07;;;;;;;0.00;0.00;;;;;;;;;;5031979;28;20082;-60
2021/08/22 11:18:35;;;;;;;0.00;0.00;;;;;;;;;;5017001;28;20052;-58
2021/08/22 11:21:03;;;;;;;0.88;0.00;;;;;;;;;;5026564;28;20064;-58
2021/08/22 11:23:32;;;;;;;0.00;0.00;;;;;;;;;;5026510;28;20033;-59
2021/08/22 11:26:10;;;;;;;0.00;0.00;;;;;;;;;;5008317;28;20037;-59
2021/08/22 11:28:37;;;;;;;0.00;0.00;;;;;;;;;;5027932;28;20844;-59
2021/08/22 11:31:15;;;;;;;0.00;0.00;;;;;;;;;;5023554;28;20037;-60
2021/08/22 11:33:43;;;;;;;0.00;0.00;;;;;;;;;;5028596;28;20033;-60
2021/08/22 11:36:08;;;;;;;0.00;0.00;;;;;;;;;;5002610;28;20024;-60
2021/08/22 11:38:36;;;;;;;0.00;0.00;;;;;;;;;;5011930;28;20039;-60
2021/08/22 11:41:03;;;;;;;0.00;0.00;;;;;;;;;;5004485;28;20115;-59
2021/08/22 11:43:28;;;;;;;0.00;0.00;;;;;;;;;;5021756;28;20043;-58
2021/08/22 11:45:54;;;;;;;0.00;0.00;;;;;;;;;;5023212;28;20092;-63
2021/08/22 11:48:22;;;;;;;0.17;0.10;;;;;;;;;;5025912;28;20056;-60
2021/08/22 11:50:51;;;;;;;0.00;0.00;;;;;;;;;;5026275;28;20073;-62
2021/08/22 11:53:17;;;;;;;0.00;0.00;;;;;;;;;;5006078;28;20021;-63
2021/08/22 11:55:45;;;;;;;0.00;0.00;;;;;;;;;;5025137;28;20029;-65
2021/08/22 11:58:14;;;;;;;0.00;0.00;;;;;;;;;;5026356;28;20028;-67
2021/08/22 12:01:05;;;;;;;0.00;0.00;;;;;;;;;;5014894;28;20025;-64
2021/08/22 12:03:35;;;;;;;2.20;0.10;;;;;;;;;;5019483;28;20049;-64
2021/08/22 12:06:07;;;;;;;0.25;0.22;;;;;;;;;;5022916;28;21014;-63
2021/08/22 12:08:33;;;;;;;0.70;0.22;;;;;;;;;;5013879;28;20045;-63
2021/08/22 12:11:07;;;;;;;0.00;0.00;;;;;;;;;;5024762;28;20516;-61
2021/08/22 12:13:34;;;;;;;0.00;0.00;;;;;;;;;;5023650;28;20055;-61
2021/08/22 12:16:00;;;;;;;0.00;0.00;;;;;;;;;;5007883;28;20020;-60
2021/08/22 12:18:31;;;;;;;2.13;0.47;;;;;;;;;;5023906;28;20530;-60
2021/08/22 12:21:14;;;;;;;0.00;0.00;;;;;;;;;;5027053;28;20024;-59
2021/08/22 12:23:43;;;;;;;0.00;0.00;;;;;;;;;;5023697;28;20566;-60
2021/08/22 12:26:31;;;;;;;0.00;0.00;;;;;;;;;;5026384;28;20112;-60
2021/08/22 12:29:09;;;;;;;0.00;0.00;;;;;;;;;;5024455;28;22418;-61
2021/08/22 12:31:35;;;;;;;0.00;0.00;;;;;;;;;;5025821;28;20246;-59
2021/08/22 12:34:16;;;;;;;0.00;0.00;;;;;;;;;;5024868;28;20033;-60
2021/08/22 12:36:48;;;;;;;0.00;0.00;;;;;;;;;;5021102;28;20147;-59
2021/08/22 12:39:17;;;;;;;0.20;0.20;;;;;;;;;;5023603;28;20245;-59
2021/08/22 12:41:50;;;;;;;0.00;0.00;;;;;;;;;;5025161;28;20029;-58
2021/08/22 12:44:16;;;;;;;0.20;0.10;;;;;;;;;;5028117;28;20040;-59
2021/08/22 12:46:47;;;;;;;0.28;0.17;;;;;;;;;;5024261;28;20092;-61
2021/08/22 12:49:16;;;;;;;0.10;0.00;;;;;;;;;;5026977;28;20078;-59
2021/08/22 12:51:57;;;;;;;0.00;0.00;;;;;;;;;;5026704;28;20056;-60
2021/08/22 12:54:24;;;;;;;0.00;0.00;;;;;;;;;;5025732;28;20534;-60
2021/08/22 12:56:55;;;;;;;0.00;0.00;;;;;;;;;;5027233;28;20108;-60
2021/08/22 12:59:23;;;;;;;0.00;0.00;;;;;;;;;;5027077;28;20037;-60
2021/08/22 13:01:51;;;;;;;0.00;0.00;;;;;;;;;;5026644;28;20033;-60
2021/08/22 13:04:19;;;;;;;0.00;0.00;;;;;;;;;;5012029;28;20051;-59
2021/08/22 13:06:45;;;;;;;0.00;0.00;;;;;;;;;;5026412;28;20021;-60
2021/08/22 13:09:13;;;;;;;0.00;0.00;;;;;;;;;;4997107;28;20054;-61
2021/08/22 13:11:42;;;;;;;0.40;0.40;;;;;;;;;;5024233;28;20033;-62
2021/08/22 13:14:10;;;;;;;0.00;0.00;;;;;;;;;;5024301;28;20057;-61
2021/08/22 13:16:35;;;;;;;0.00;0.00;;;;;;;;;;5021982;28;20045;-61
2021/08/22 13:19:01;;;;;;;0.00;0.00;;;;;;;;;;5023274;28;20078;-60
2021/08/22 13:21:27;;;;;;;0.00;0.00;;;;;;;;;;5024697;28;20456;-60
2021/08/22 13:23:53;;;;;;;0.00;0.00;;;;;;;;;;5022556;28;20227;-60
2021/08/22 13:26:25;;;;;;;0.00;0.00;;;;;;;;;;5020537;28;20028;-60
2021/08/22 13:28:52;;;;;;;0.00;0.00;;;;;;;;;;5021470;28;20037;-61
2021/08/22 13:31:18;;;;;;;0.00;0.00;;;;;;;;;;5006685;28;20052;-61
2021/08/22 13:33:43;;;;;;;0.00;0.00;;;;;;;;;;5022722;28;20250;-60
2021/08/22 13:36:09;;;;;;;0.00;0.00;;;;;;;;;;5023907;28;20120;-61
2021/08/22 13:38:37;;;;;;;0.00;0.00;;;;;;;;;;5007612;28;20041;-61
2021/08/22 13:41:06;;;;;;;0.00;0.00;;;;;;;;;;5021567;28;20516;-62
2021/08/22 13:43:33;;;;;;;0.00;0.00;;;;;;;;;;5023667;28;20152;-61
2021/08/22 13:46:01;;;;;;;0.10;0.10;;;;;;;;;;5021937;28;20049;-61
2021/08/22 13:48:27;;;;;;;0.10;0.10;;;;;;;;;;5024454;28;20037;-61
2021/08/22 13:50:53;;;;;;;0.13;0.13;;;;;;;;;;5024454;28;20067;-61
2021/08/22 13:53:18;;;;;;;0.00;0.00;;;;;;;;;;5027023;28;20373;-61
2021/08/22 13:55:43;;;;;;;0.10;0.10;;;;;;;;;;5019831;28;20043;-61
2021/08/22 13:58:09;;;;;;;0.05;0.05;;;;;;;;;;5026762;28;20036;-62
2021/08/22 14:00:35;;;;;;;0.10;0.10;;;;;;;;;;5030424;28;20032;-62
2021/08/22 14:03:02;;;;;;;0.08;0.08;;;;;;;;;;5015988;28;20102;-61
2021/08/22 14:05:28;;;;;;;0.03;0.03;;;;;;;;;;5030431;28;20095;-62
2021/08/22 14:07:56;;;;;;;0.15;0.05;;;;;;;;;;5027846;28;20079;-62
2021/08/22 14:10:24;;;;;;;1.00;0.20;;;;;;;;;;5028545;28;20123;-62
2021/08/22 14:12:50;;;;;;;2.25;0.10;;;;;;;;;;5016774;28;20038;-61
2021/08/22 14:15:15;;;;;;;0.10;0.10;;;;;;;;;;5030246;28;20094;-63
2021/08/22 14:17:43;;;;;;;0.10;0.10;;;;;;;;;;5027111;28;20032;-62
2021/08/22 14:20:09;;;;;;;0.00;0.00;;;;;;;;;;5029773;28;20033;-62
2021/08/22 14:22:38;;;;;;;0.20;0.20;;;;;;;;;;5030349;28;20455;-62
2021/08/22 14:25:23;;;;;;;0.08;0.08;;;;;;;;;;5048456;28;20059;-62
2021/08/22 14:27:57;;;;;;;0.75;0.38;;;;;;;;;;4990179;28;20079;-62
2021/08/22 14:30:24;;;;;;;0.15;0.15;;;;;;;;;;5032435;28;20089;-61
2021/08/22 14:32:50;;;;;;;0.22;0.22;;;;;;;;;;5032178;28;20028;-62
2021/08/22 14:35:18;;;;;;;0.20;0.20;;;;;;;;;;5029832;28;20086;-62
2021/08/22 14:37:44;;;;;;;0.30;0.30;;;;;;;;;;5014589;28;20036;-63
2021/08/22 14:40:12;;;;;;;0.10;0.10;;;;;;;;;;5045637;28;20040;-63
2021/08/22 14:42:40;;;;;;;0.40;0.40;;;;;;;;;;5014446;28;20047;-64